metar:  

KBOI 152253Z 34005KT 10SM CLR 16/M01 A3013 RMK AO2 SLP202 T01561006